sensor_id;sensor_type;location;lat;lon;timestamp;P1;durP1;ratioP1;P2;durP2;ratioP2
15633;SDS011;14654;48.898;8.308;2023-09-30T00:01:40;2.20;;;1.90;;
15633;SDS011;14654;48.898;8.308;2023-09-30T00:04:05;2.23;;;1.83;;
15633;SDS011;14654;48.898;8.308;2023-09-30T00:06:32;2.97;;;1.93;;
15633;SDS011;14654;48.898;8.308;2023-09-30T00:08:57;2.40;;;1.87;;
15633;SDS011;14654;48.898;8.308;2023-09-30T00:11:22;2.50;;;1.80;;
15633;SDS011;14654;48.898;8.308;2023-09-30T00:13:48;2.50;;;1.80;;
15633;SDS011;14654;48.898;8.308;2023-09-30T00:16:14;1.97;;;1.70;;
15633;SDS011;14654;48.898;8.308;2023-09-30T00:18:42;1.70;;;1.60;;
15633;SDS011;14654;48.898;8.308;2023-09-30T00:21:07;2.27;;;1.90;;
15633;SDS011;14654;48.898;8.308;2023-09-30T00:23:33;2.27;;;1.90;;
15633;SDS011;14654;48.898;8.308;2023-09-30T00:25:58;2.30;;;1.93;;
15633;SDS011;14654;48.898;8.308;2023-09-30T00:28:25;2.33;;;2.13;;
15633;SDS011;14654;48.898;8.308;2023-09-30T00:30:50;3.93;;;2.07;;
15633;SDS011;14654;48.898;8.308;2023-09-30T00:33:15;3.47;;;2.03;;
15633;SDS011;14654;48.898;8.308;2023-09-30T00:35:41;3.77;;;2.30;;
15633;SDS011;14654;48.898;8.308;2023-09-30T00:38:06;2.83;;;1.97;;
15633;SDS011;14654;48.898;8.308;2023-09-30T00:40:31;2.40;;;2.00;;
15633;SDS011;14654;48.898;8.308;2023-09-30T00:42:57;2.33;;;1.97;;
15633;SDS011;14654;48.898;8.308;2023-09-30T00:45:23;2.50;;;1.83;;
15633;SDS011;14654;48.898;8.308;2023-09-30T00:47:48;2.63;;;1.80;;
15633;SDS011;14654;48.898;8.308;2023-09-30T00:50:13;2.63;;;1.90;;
15633;SDS011;14654;48.898;8.308;2023-09-30T00:52:39;5.00;;;2.40;;
15633;SDS011;14654;48.898;8.308;2023-09-30T00:55:06;2.90;;;2.27;;
15633;SDS011;14654;48.898;8.308;2023-09-30T00:57:32;2.30;;;1.73;;
15633;SDS011;14654;48.898;8.308;2023-09-30T00:59:59;3.07;;;1.70;;
15633;SDS011;14654;48.898;8.308;2023-09-30T01:02:26;2.83;;;2.00;;
15633;SDS011;14654;48.898;8.308;2023-09-30T01:04:51;2.40;;;1.93;;
15633;SDS011;14654;48.898;8.308;2023-09-30T01:07:17;1.90;;;1.60;;
15633;SDS011;14654;48.898;8.308;2023-09-30T01:09:42;2.57;;;1.87;;
15633;SDS011;14654;48.898;8.308;2023-09-30T01:12:08;1.90;;;1.67;;
15633;SDS011;14654;48.898;8.308;2023-09-30T01:14:34;1.80;;;1.60;;
15633;SDS011;14654;48.898;8.308;2023-09-30T01:17:00;2.90;;;1.53;;
15633;SDS011;14654;48.898;8.308;2023-09-30T01:19:26;2.40;;;1.60;;
15633;SDS011;14654;48.898;8.308;2023-09-30T01:21:58;2.10;;;1.60;;
15633;SDS011;14654;48.898;8.308;2023-09-30T01:24:31;2.00;;;1.70;;
15633;SDS011;14654;48.898;8.308;2023-09-30T01:27:03;1.67;;;1.47;;
15633;SDS011;14654;48.898;8.308;2023-09-30T01:29:28;2.10;;;1.70;;
15633;SDS011;14654;48.898;8.308;2023-09-30T01:31:54;2.27;;;1.67;;
15633;SDS011;14654;48.898;8.308;2023-09-30T01:34:19;2.20;;;2.00;;
15633;SDS011;14654;48.898;8.308;2023-09-30T01:36:45;1.83;;;1.70;;
15633;SDS011;14654;48.898;8.308;2023-09-30T01:39:10;2.13;;;1.77;;
15633;SDS011;14654;48.898;8.308;2023-09-30T01:41:37;2.17;;;1.90;;
15633;SDS011;14654;48.898;8.308;2023-09-30T01:44:05;3.00;;;2.13;;
15633;SDS011;14654;48.898;8.308;2023-09-30T01:46:31;3.77;;;2.30;;
15633;SDS011;14654;48.898;8.308;2023-09-30T01:48:56;2.33;;;2.13;;
15633;SDS011;14654;48.898;8.308;2023-09-30T01:51:22;2.83;;;2.00;;
15633;SDS011;14654;48.898;8.308;2023-09-30T01:53:48;2.50;;;1.97;;
15633;SDS011;14654;48.898;8.308;2023-09-30T01:56:13;2.00;;;1.80;;
15633;SDS011;14654;48.898;8.308;2023-09-30T01:58:39;2.50;;;1.97;;
15633;SDS011;14654;48.898;8.308;2023-09-30T02:01:04;3.00;;;2.00;;
15633;SDS011;14654;48.898;8.308;2023-09-30T02:03:30;1.97;;;1.80;;
15633;SDS011;14654;48.898;8.308;2023-09-30T02:05:56;2.17;;;1.97;;
15633;SDS011;14654;48.898;8.308;2023-09-30T02:08:22;2.10;;;1.90;;
15633;SDS011;14654;48.898;8.308;2023-09-30T02:10:48;1.73;;;1.63;;
15633;SDS011;14654;48.898;8.308;2023-09-30T02:13:13;2.33;;;1.80;;
15633;SDS011;14654;48.898;8.308;2023-09-30T02:15:42;2.40;;;2.10;;
15633;SDS011;14654;48.898;8.308;2023-09-30T02:18:08;3.50;;;2.50;;
15633;SDS011;14654;48.898;8.308;2023-09-30T02:20:34;2.60;;;2.00;;
15633;SDS011;14654;48.898;8.308;2023-09-30T02:22:59;2.93;;;2.30;;
15633;SDS011;14654;48.898;8.308;2023-09-30T02:25:27;2.30;;;2.10;;
15633;SDS011;14654;48.898;8.308;2023-09-30T02:27:52;2.27;;;1.80;;
15633;SDS011;14654;48.898;8.308;2023-09-30T02:30:18;2.13;;;1.90;;
15633;SDS011;14654;48.898;8.308;2023-09-30T02:32:43;2.00;;;1.80;;
15633;SDS011;14654;48.898;8.308;2023-09-30T02:35:11;2.70;;;1.93;;
15633;SDS011;14654;48.898;8.308;2023-09-30T02:37:36;2.10;;;1.90;;
15633;SDS011;14654;48.898;8.308;2023-09-30T02:40:05;2.23;;;2.03;;
15633;SDS011;14654;48.898;8.308;2023-09-30T02:42:34;2.50;;;2.13;;
15633;SDS011;14654;48.898;8.308;2023-09-30T02:45:01;2.77;;;2.00;;
15633;SDS011;14654;48.898;8.308;2023-09-30T02:47:27;3.40;;;1.60;;
15633;SDS011;14654;48.898;8.308;2023-09-30T02:49:53;2.13;;;1.87;;
15633;SDS011;14654;48.898;8.308;2023-09-30T02:52:19;1.80;;;1.63;;
15633;SDS011;14654;48.898;8.308;2023-09-30T02:54:46;2.23;;;2.03;;
15633;SDS011;14654;48.898;8.308;2023-09-30T02:57:11;2.23;;;2.03;;
15633;SDS011;14654;48.898;8.308;2023-09-30T02:59:36;2.63;;;1.87;;
15633;SDS011;14654;48.898;8.308;2023-09-30T03:02:02;2.27;;;1.90;;
15633;SDS011;14654;48.898;8.308;2023-09-30T03:04:28;2.37;;;1.90;;
15633;SDS011;14654;48.898;8.308;2023-09-30T03:06:53;1.93;;;1.73;;
15633;SDS011;14654;48.898;8.308;2023-09-30T03:09:21;2.30;;;1.80;;
15633;SDS011;14654;48.898;8.308;2023-09-30T03:11:47;2.93;;;1.97;;
15633;SDS011;14654;48.898;8.308;2023-09-30T03:14:13;2.00;;;1.70;;
15633;SDS011;14654;48.898;8.308;2023-09-30T03:16:39;1.93;;;1.67;;
15633;SDS011;14654;48.898;8.308;2023-09-30T03:19:06;2.13;;;1.77;;
15633;SDS011;14654;48.898;8.308;2023-09-30T03:21:33;2.93;;;2.33;;
15633;SDS011;14654;48.898;8.308;2023-09-30T03:23:58;2.23;;;1.90;;
15633;SDS011;14654;48.898;8.308;2023-09-30T03:26:24;2.37;;;1.80;;
15633;SDS011;14654;48.898;8.308;2023-09-30T03:28:49;2.37;;;1.83;;
15633;SDS011;14654;48.898;8.308;2023-09-30T03:31:19;2.73;;;2.00;;
15633;SDS011;14654;48.898;8.308;2023-09-30T03:33:44;2.53;;;1.97;;
15633;SDS011;14654;48.898;8.308;2023-09-30T03:36:11;2.20;;;1.87;;
15633;SDS011;14654;48.898;8.308;2023-09-30T03:38:37;2.20;;;2.00;;
15633;SDS011;14654;48.898;8.308;2023-09-30T03:41:04;2.07;;;1.80;;
15633;SDS011;14654;48.898;8.308;2023-09-30T03:43:33;2.07;;;1.87;;
15633;SDS011;14654;48.898;8.308;2023-09-30T03:45:59;3.27;;;1.80;;
15633;SDS011;14654;48.898;8.308;2023-09-30T03:48:25;3.10;;;2.00;;
15633;SDS011;14654;48.898;8.308;2023-09-30T03:50:51;2.07;;;1.87;;
15633;SDS011;14654;48.898;8.308;2023-09-30T03:53:18;2.67;;;2.10;;
15633;SDS011;14654;48.898;8.308;2023-09-30T03:55:44;3.77;;;2.23;;
15633;SDS011;14654;48.898;8.308;2023-09-30T03:58:10;2.33;;;1.83;;
15633;SDS011;14654;48.898;8.308;2023-09-30T04:00:37;3.00;;;2.20;;
15633;SDS011;14654;48.898;8.308;2023-09-30T04:03:04;2.00;;;1.90;;
15633;SDS011;14654;48.898;8.308;2023-09-30T04:05:29;2.20;;;1.93;;
15633;SDS011;14654;48.898;8.308;2023-09-30T04:07:55;2.73;;;2.20;;
15633;SDS011;14654;48.898;8.308;2023-09-30T04:10:21;2.30;;;2.10;;
15633;SDS011;14654;48.898;8.308;2023-09-30T04:12:47;2.50;;;2.00;;
15633;SDS011;14654;48.898;8.308;2023-09-30T04:15:13;2.73;;;1.97;;
15633;SDS011;14654;48.898;8.308;2023-09-30T04:17:38;2.13;;;1.77;;
15633;SDS011;14654;48.898;8.308;2023-09-30T04:20:05;2.70;;;1.90;;
15633;SDS011;14654;48.898;8.308;2023-09-30T04:22:34;2.43;;;1.90;;
15633;SDS011;14654;48.898;8.308;2023-09-30T04:25:00;3.20;;;2.20;;
15633;SDS011;14654;48.898;8.308;2023-09-30T04:27:26;3.97;;;2.37;;
15633;SDS011;14654;48.898;8.308;2023-09-30T04:29:52;6.87;;;3.90;;
15633;SDS011;14654;48.898;8.308;2023-09-30T04:32:18;4.60;;;3.40;;
15633;SDS011;14654;48.898;8.308;2023-09-30T04:34:44;3.07;;;2.53;;
15633;SDS011;14654;48.898;8.308;2023-09-30T04:37:12;3.17;;;2.47;;
15633;SDS011;14654;48.898;8.308;2023-09-30T04:39:38;4.40;;;2.53;;
15633;SDS011;14654;48.898;8.308;2023-09-30T04:42:04;2.97;;;2.60;;
15633;SDS011;14654;48.898;8.308;2023-09-30T04:44:30;4.10;;;3.10;;
15633;SDS011;14654;48.898;8.308;2023-09-30T04:46:56;5.60;;;3.47;;
15633;SDS011;14654;48.898;8.308;2023-09-30T04:49:22;4.23;;;2.83;;
15633;SDS011;14654;48.898;8.308;2023-09-30T04:51:48;4.80;;;2.67;;
15633;SDS011;14654;48.898;8.308;2023-09-30T04:54:14;3.03;;;2.73;;
15633;SDS011;14654;48.898;8.308;2023-09-30T04:56:39;4.27;;;2.70;;
15633;SDS011;14654;48.898;8.308;2023-09-30T04:59:05;2.93;;;2.60;;
15633;SDS011;14654;48.898;8.308;2023-09-30T05:01:30;3.20;;;2.13;;
15633;SDS011;14654;48.898;8.308;2023-09-30T05:03:55;4.03;;;2.77;;
15633;SDS011;14654;48.898;8.308;2023-09-30T05:06:20;3.43;;;2.50;;
15633;SDS011;14654;48.898;8.308;2023-09-30T05:08:46;5.17;;;2.50;;
15633;SDS011;14654;48.898;8.308;2023-09-30T05:11:12;3.23;;;2.40;;
15633;SDS011;14654;48.898;8.308;2023-09-30T05:13:38;3.70;;;3.10;;
15633;SDS011;14654;48.898;8.308;2023-09-30T05:16:03;3.17;;;2.57;;
15633;SDS011;14654;48.898;8.308;2023-09-30T05:18:29;3.50;;;2.70;;
15633;SDS011;14654;48.898;8.308;2023-09-30T05:20:54;3.37;;;2.73;;
15633;SDS011;14654;48.898;8.308;2023-09-30T05:23:20;3.13;;;2.53;;
15633;SDS011;14654;48.898;8.308;2023-09-30T05:25:45;3.80;;;2.60;;
15633;SDS011;14654;48.898;8.308;2023-09-30T05:28:11;2.60;;;2.30;;
15633;SDS011;14654;48.898;8.308;2023-09-30T05:30:36;3.77;;;2.80;;
15633;SDS011;14654;48.898;8.308;2023-09-30T05:33:02;3.07;;;2.77;;
15633;SDS011;14654;48.898;8.308;2023-09-30T05:35:28;3.80;;;2.67;;
15633;SDS011;14654;48.898;8.308;2023-09-30T05:37:54;3.63;;;2.70;;
15633;SDS011;14654;48.898;8.308;2023-09-30T05:40:20;3.23;;;2.70;;
15633;SDS011;14654;48.898;8.308;2023-09-30T05:42:55;3.33;;;2.73;;
15633;SDS011;14654;48.898;8.308;2023-09-30T05:45:23;3.60;;;2.80;;
15633;SDS011;14654;48.898;8.308;2023-09-30T05:47:48;3.30;;;2.70;;
15633;SDS011;14654;48.898;8.308;2023-09-30T05:50:14;5.50;;;3.50;;
15633;SDS011;14654;48.898;8.308;2023-09-30T05:52:44;3.57;;;2.90;;
15633;SDS011;14654;48.898;8.308;2023-09-30T05:55:10;3.23;;;2.93;;
15633;SDS011;14654;48.898;8.308;2023-09-30T05:57:36;4.67;;;2.97;;
15633;SDS011;14654;48.898;8.308;2023-09-30T06:00:02;2.87;;;2.57;;
15633;SDS011;14654;48.898;8.308;2023-09-30T06:02:46;3.20;;;2.70;;
15633;SDS011;14654;48.898;8.308;2023-09-30T06:05:12;3.23;;;2.50;;
15633;SDS011;14654;48.898;8.308;2023-09-30T06:07:37;3.23;;;2.90;;
15633;SDS011;14654;48.898;8.308;2023-09-30T06:10:03;3.50;;;3.20;;
15633;SDS011;14654;48.898;8.308;2023-09-30T06:12:28;4.20;;;3.00;;
15633;SDS011;14654;48.898;8.308;2023-09-30T06:14:54;3.87;;;3.47;;
15633;SDS011;14654;48.898;8.308;2023-09-30T06:17:19;3.57;;;3.27;;
15633;SDS011;14654;48.898;8.308;2023-09-30T06:19:47;6.07;;;3.87;;
15633;SDS011;14654;48.898;8.308;2023-09-30T06:22:15;6.73;;;4.07;;
15633;SDS011;14654;48.898;8.308;2023-09-30T06:24:40;5.40;;;4.10;;
15633;SDS011;14654;48.898;8.308;2023-09-30T06:27:06;4.63;;;3.90;;
15633;SDS011;14654;48.898;8.308;2023-09-30T06:29:32;6.30;;;4.37;;
15633;SDS011;14654;48.898;8.308;2023-09-30T06:31:58;6.30;;;4.83;;
15633;SDS011;14654;48.898;8.308;2023-09-30T06:34:24;6.50;;;4.97;;
15633;SDS011;14654;48.898;8.308;2023-09-30T06:36:49;5.17;;;4.67;;
15633;SDS011;14654;48.898;8.308;2023-09-30T06:39:14;5.83;;;4.80;;
15633;SDS011;14654;48.898;8.308;2023-09-30T06:41:40;5.70;;;4.50;;
15633;SDS011;14654;48.898;8.308;2023-09-30T06:44:05;5.93;;;4.90;;
15633;SDS011;14654;48.898;8.308;2023-09-30T06:46:30;4.87;;;4.33;;
15633;SDS011;14654;48.898;8.308;2023-09-30T06:48:56;4.87;;;4.07;;
15633;SDS011;14654;48.898;8.308;2023-09-30T06:51:21;6.13;;;4.43;;
15633;SDS011;14654;48.898;8.308;2023-09-30T06:53:46;5.27;;;3.90;;
15633;SDS011;14654;48.898;8.308;2023-09-30T06:56:12;6.53;;;4.03;;
15633;SDS011;14654;48.898;8.308;2023-09-30T06:58:40;5.83;;;5.10;;
15633;SDS011;14654;48.898;8.308;2023-09-30T07:01:05;5.13;;;4.30;;
15633;SDS011;14654;48.898;8.308;2023-09-30T07:03:31;4.30;;;3.97;;
15633;SDS011;14654;48.898;8.308;2023-09-30T07:05:57;4.97;;;4.03;;
15633;SDS011;14654;48.898;8.308;2023-09-30T07:08:25;5.27;;;4.77;;
15633;SDS011;14654;48.898;8.308;2023-09-30T07:10:51;5.70;;;4.73;;
15633;SDS011;14654;48.898;8.308;2023-09-30T07:13:17;5.70;;;4.90;;
15633;SDS011;14654;48.898;8.308;2023-09-30T07:15:43;7.33;;;5.00;;
15633;SDS011;14654;48.898;8.308;2023-09-30T07:18:08;6.20;;;5.30;;
15633;SDS011;14654;48.898;8.308;2023-09-30T07:20:34;6.97;;;4.50;;
15633;SDS011;14654;48.898;8.308;2023-09-30T07:23:00;6.67;;;5.00;;
15633;SDS011;14654;48.898;8.308;2023-09-30T07:25:26;8.17;;;4.87;;
15633;SDS011;14654;48.898;8.308;2023-09-30T07:27:51;6.03;;;4.37;;
15633;SDS011;14654;48.898;8.308;2023-09-30T07:30:17;15.73;;;10.70;;
15633;SDS011;14654;48.898;8.308;2023-09-30T07:32:42;7.03;;;6.33;;
15633;SDS011;14654;48.898;8.308;2023-09-30T07:35:08;6.13;;;5.10;;
15633;SDS011;14654;48.898;8.308;2023-09-30T07:37:34;7.60;;;5.23;;
15633;SDS011;14654;48.898;8.308;2023-09-30T07:40:00;9.20;;;6.30;;
15633;SDS011;14654;48.898;8.308;2023-09-30T07:42:25;8.27;;;6.40;;
15633;SDS011;14654;48.898;8.308;2023-09-30T07:44:51;6.10;;;4.83;;
15633;SDS011;14654;48.898;8.308;2023-09-30T07:47:16;9.10;;;6.50;;
15633;SDS011;14654;48.898;8.308;2023-09-30T07:49:42;8.70;;;6.27;;
15633;SDS011;14654;48.898;8.308;2023-09-30T07:52:08;9.30;;;5.90;;
15633;SDS011;14654;48.898;8.308;2023-09-30T07:54:33;7.17;;;5.97;;
15633;SDS011;14654;48.898;8.308;2023-09-30T07:56:59;5.83;;;5.23;;
15633;SDS011;14654;48.898;8.308;2023-09-30T07:59:24;8.50;;;5.70;;
15633;SDS011;14654;48.898;8.308;2023-09-30T08:01:50;5.97;;;5.37;;
15633;SDS011;14654;48.898;8.308;2023-09-30T08:04:17;7.27;;;6.40;;
15633;SDS011;14654;48.898;8.308;2023-09-30T08:06:43;7.67;;;5.13;;
15633;SDS011;14654;48.898;8.308;2023-09-30T08:09:08;9.07;;;6.07;;
15633;SDS011;14654;48.898;8.308;2023-09-30T08:11:36;6.93;;;5.47;;
15633;SDS011;14654;48.898;8.308;2023-09-30T08:14:03;10.33;;;6.17;;
15633;SDS011;14654;48.898;8.308;2023-09-30T08:16:32;7.27;;;5.40;;
15633;SDS011;14654;48.898;8.308;2023-09-30T08:18:58;6.70;;;5.63;;
15633;SDS011;14654;48.898;8.308;2023-09-30T08:21:23;8.20;;;6.10;;
15633;SDS011;14654;48.898;8.308;2023-09-30T08:23:48;6.13;;;5.47;;
15633;SDS011;14654;48.898;8.308;2023-09-30T08:26:14;8.97;;;6.43;;
15633;SDS011;14654;48.898;8.308;2023-09-30T08:28:39;6.87;;;5.63;;
15633;SDS011;14654;48.898;8.308;2023-09-30T08:31:05;6.30;;;5.10;;
15633;SDS011;14654;48.898;8.308;2023-09-30T08:33:31;6.77;;;5.37;;
15633;SDS011;14654;48.898;8.308;2023-09-30T08:36:03;7.77;;;5.87;;
15633;SDS011;14654;48.898;8.308;2023-09-30T08:38:34;7.90;;;5.73;;
15633;SDS011;14654;48.898;8.308;2023-09-30T08:41:00;7.47;;;5.40;;
15633;SDS011;14654;48.898;8.308;2023-09-30T08:43:27;6.87;;;5.03;;
15633;SDS011;14654;48.898;8.308;2023-09-30T08:45:56;7.00;;;5.37;;
15633;SDS011;14654;48.898;8.308;2023-09-30T08:48:21;5.87;;;4.47;;
15633;SDS011;14654;48.898;8.308;2023-09-30T08:50:48;6.20;;;5.13;;
15633;SDS011;14654;48.898;8.308;2023-09-30T08:53:16;6.27;;;4.60;;
15633;SDS011;14654;48.898;8.308;2023-09-30T08:55:42;6.13;;;5.00;;
15633;SDS011;14654;48.898;8.308;2023-09-30T08:58:09;4.87;;;4.40;;
15633;SDS011;14654;48.898;8.308;2023-09-30T09:00:37;5.03;;;4.00;;
15633;SDS011;14654;48.898;8.308;2023-09-30T09:03:03;7.73;;;4.60;;
15633;SDS011;14654;48.898;8.308;2023-09-30T09:05:30;7.70;;;4.40;;
15633;SDS011;14654;48.898;8.308;2023-09-30T09:07:55;6.70;;;4.83;;
15633;SDS011;14654;48.898;8.308;2023-09-30T09:10:20;7.63;;;4.70;;
15633;SDS011;14654;48.898;8.308;2023-09-30T09:12:54;6.07;;;4.10;;
15633;SDS011;14654;48.898;8.308;2023-09-30T09:15:24;5.53;;;4.37;;
15633;SDS011;14654;48.898;8.308;2023-09-30T09:17:51;4.53;;;3.63;;
15633;SDS011;14654;48.898;8.308;2023-09-30T09:20:18;5.87;;;4.20;;
15633;SDS011;14654;48.898;8.308;2023-09-30T09:22:46;6.30;;;4.30;;
15633;SDS011;14654;48.898;8.308;2023-09-30T09:25:12;8.50;;;4.20;;
15633;SDS011;14654;48.898;8.308;2023-09-30T09:27:38;7.37;;;4.17;;
15633;SDS011;14654;48.898;8.308;2023-09-30T09:30:17;6.87;;;4.23;;
15633;SDS011;14654;48.898;8.308;2023-09-30T09:35:31;6.90;;;4.40;;
15633;SDS011;14654;48.898;8.308;2023-09-30T09:38:04;5.07;;;3.80;;
15633;SDS011;14654;48.898;8.308;2023-09-30T09:40:33;6.67;;;3.50;;
15633;SDS011;14654;48.898;8.308;2023-09-30T09:43:03;4.63;;;3.50;;
15633;SDS011;14654;48.898;8.308;2023-09-30T09:45:30;5.67;;;3.63;;
15633;SDS011;14654;48.898;8.308;2023-09-30T09:48:01;7.80;;;3.70;;
15633;SDS011;14654;48.898;8.308;2023-09-30T09:50:26;5.60;;;3.90;;
15633;SDS011;14654;48.898;8.308;2023-09-30T09:52:52;5.43;;;3.80;;
15633;SDS011;14654;48.898;8.308;2023-09-30T09:55:24;5.73;;;3.33;;
15633;SDS011;14654;48.898;8.308;2023-09-30T09:57:50;5.23;;;3.43;;
15633;SDS011;14654;48.898;8.308;2023-09-30T10:00:17;6.00;;;3.70;;
15633;SDS011;14654;48.898;8.308;2023-09-30T10:02:44;4.40;;;2.90;;
15633;SDS011;14654;48.898;8.308;2023-09-30T10:05:14;5.27;;;3.43;;
15633;SDS011;14654;48.898;8.308;2023-09-30T10:10:19;4.10;;;3.30;;
15633;SDS011;14654;48.898;8.308;2023-09-30T10:12:46;3.93;;;3.43;;
15633;SDS011;14654;48.898;8.308;2023-09-30T10:17:56;5.07;;;3.50;;
15633;SDS011;14654;48.898;8.308;2023-09-30T10:20:26;6.47;;;3.67;;
15633;SDS011;14654;48.898;8.308;2023-09-30T10:23:38;4.50;;;3.47;;
15633;SDS011;14654;48.898;8.308;2023-09-30T10:25:49;4.87;;;3.33;;
15633;SDS011;14654;48.898;8.308;2023-09-30T10:28:36;4.90;;;3.60;;
15633;SDS011;14654;48.898;8.308;2023-09-30T10:31:07;5.60;;;3.70;;
15633;SDS011;14654;48.898;8.308;2023-09-30T10:33:35;4.83;;;3.37;;
15633;SDS011;14654;48.898;8.308;2023-09-30T10:36:00;5.27;;;3.47;;
15633;SDS011;14654;48.898;8.308;2023-09-30T10:41:00;3.80;;;3.33;;
15633;SDS011;14654;48.898;8.308;2023-09-30T10:43:40;5.40;;;4.00;;
15633;SDS011;14654;48.898;8.308;2023-09-30T10:48:51;5.30;;;3.67;;
15633;SDS011;14654;48.898;8.308;2023-09-30T10:51:17;6.30;;;3.67;;
15633;SDS011;14654;48.898;8.308;2023-09-30T10:53:52;4.30;;;3.13;;
15633;SDS011;14654;48.898;8.308;2023-09-30T10:56:22;4.23;;;3.53;;
15633;SDS011;14654;48.898;8.308;2023-09-30T11:01:16;5.10;;;4.10;;
15633;SDS011;14654;48.898;8.308;2023-09-30T11:03:44;4.80;;;3.40;;
15633;SDS011;14654;48.898;8.308;2023-09-30T11:06:11;6.10;;;4.10;;
15633;SDS011;14654;48.898;8.308;2023-09-30T11:08:40;5.70;;;4.13;;
15633;SDS011;14654;48.898;8.308;2023-09-30T11:11:10;5.43;;;3.80;;
15633;SDS011;14654;48.898;8.308;2023-09-30T11:13:36;4.57;;;3.80;;
15633;SDS011;14654;48.898;8.308;2023-09-30T11:16:02;7.03;;;3.80;;
15633;SDS011;14654;48.898;8.308;2023-09-30T11:18:29;5.97;;;4.00;;
15633;SDS011;14654;48.898;8.308;2023-09-30T11:21:09;4.87;;;3.60;;
15633;SDS011;14654;48.898;8.308;2023-09-30T11:23:38;5.77;;;4.00;;
15633;SDS011;14654;48.898;8.308;2023-09-30T11:26:05;6.60;;;4.33;;
15633;SDS011;14654;48.898;8.308;2023-09-30T11:28:38;5.63;;;4.23;;
15633;SDS011;14654;48.898;8.308;2023-09-30T11:31:06;5.43;;;3.87;;
15633;SDS011;14654;48.898;8.308;2023-09-30T11:33:46;6.50;;;3.93;;
15633;SDS011;14654;48.898;8.308;2023-09-30T11:36:13;6.27;;;3.90;;
15633;SDS011;14654;48.898;8.308;2023-09-30T11:38:43;5.63;;;4.10;;
15633;SDS011;14654;48.898;8.308;2023-09-30T11:41:11;7.47;;;4.20;;
15633;SDS011;14654;48.898;8.308;2023-09-30T11:43:37;7.67;;;4.43;;
15633;SDS011;14654;48.898;8.308;2023-09-30T11:46:07;6.67;;;4.20;;
15633;SDS011;14654;48.898;8.308;2023-09-30T11:48:36;5.60;;;3.93;;
15633;SDS011;14654;48.898;8.308;2023-09-30T11:51:02;7.47;;;4.53;;
15633;SDS011;14654;48.898;8.308;2023-09-30T11:53:29;8.20;;;4.53;;
15633;SDS011;14654;48.898;8.308;2023-09-30T11:55:56;7.53;;;4.33;;
15633;SDS011;14654;48.898;8.308;2023-09-30T11:58:23;5.53;;;3.93;;
15633;SDS011;14654;48.898;8.308;2023-09-30T12:00:49;8.40;;;5.10;;
15633;SDS011;14654;48.898;8.308;2023-09-30T12:03:17;7.20;;;4.57;;
15633;SDS011;14654;48.898;8.308;2023-09-30T12:05:42;7.07;;;4.00;;
15633;SDS011;14654;48.898;8.308;2023-09-30T12:08:10;5.27;;;3.83;;
15633;SDS011;14654;48.898;8.308;2023-09-30T12:10:36;8.17;;;4.97;;
15633;SDS011;14654;48.898;8.308;2023-09-30T12:13:01;4.93;;;4.00;;
15633;SDS011;14654;48.898;8.308;2023-09-30T12:15:27;5.93;;;4.20;;
15633;SDS011;14654;48.898;8.308;2023-09-30T12:17:52;5.43;;;3.90;;
15633;SDS011;14654;48.898;8.308;2023-09-30T12:20:17;6.93;;;4.20;;
15633;SDS011;14654;48.898;8.308;2023-09-30T12:22:43;5.33;;;4.03;;
15633;SDS011;14654;48.898;8.308;2023-09-30T12:25:08;5.73;;;3.90;;
15633;SDS011;14654;48.898;8.308;2023-09-30T12:27:34;6.90;;;4.57;;
15633;SDS011;14654;48.898;8.308;2023-09-30T12:29:59;7.53;;;4.50;;
15633;SDS011;14654;48.898;8.308;2023-09-30T12:32:25;6.83;;;4.30;;
15633;SDS011;14654;48.898;8.308;2023-09-30T12:34:51;7.67;;;4.60;;
15633;SDS011;14654;48.898;8.308;2023-09-30T12:37:18;5.93;;;4.30;;
15633;SDS011;14654;48.898;8.308;2023-09-30T12:39:43;5.70;;;4.60;;
15633;SDS011;14654;48.898;8.308;2023-09-30T12:42:10;6.80;;;4.87;;
15633;SDS011;14654;48.898;8.308;2023-09-30T12:44:37;7.03;;;4.57;;
15633;SDS011;14654;48.898;8.308;2023-09-30T12:47:03;7.07;;;4.50;;
15633;SDS011;14654;48.898;8.308;2023-09-30T12:49:30;5.57;;;4.10;;
15633;SDS011;14654;48.898;8.308;2023-09-30T12:51:55;6.10;;;4.60;;
15633;SDS011;14654;48.898;8.308;2023-09-30T12:54:22;5.47;;;4.03;;
15633;SDS011;14654;48.898;8.308;2023-09-30T12:56:48;5.30;;;4.10;;
15633;SDS011;14654;48.898;8.308;2023-09-30T12:59:15;7.47;;;4.33;;
15633;SDS011;14654;48.898;8.308;2023-09-30T13:01:41;6.80;;;4.33;;
15633;SDS011;14654;48.898;8.308;2023-09-30T13:04:06;7.03;;;4.60;;
15633;SDS011;14654;48.898;8.308;2023-09-30T13:06:33;5.90;;;4.03;;
15633;SDS011;14654;48.898;8.308;2023-09-30T13:09:00;6.83;;;4.50;;
15633;SDS011;14654;48.898;8.308;2023-09-30T13:11:26;5.17;;;4.10;;
15633;SDS011;14654;48.898;8.308;2023-09-30T13:13:51;4.60;;;3.83;;
15633;SDS011;14654;48.898;8.308;2023-09-30T13:16:17;5.13;;;3.90;;
15633;SDS011;14654;48.898;8.308;2023-09-30T13:18:42;5.97;;;4.63;;
15633;SDS011;14654;48.898;8.308;2023-09-30T13:21:08;7.83;;;4.67;;
15633;SDS011;14654;48.898;8.308;2023-09-30T13:23:34;7.30;;;4.80;;
15633;SDS011;14654;48.898;8.308;2023-09-30T13:26:00;6.67;;;4.73;;
15633;SDS011;14654;48.898;8.308;2023-09-30T13:28:26;7.10;;;4.60;;
15633;SDS011;14654;48.898;8.308;2023-09-30T13:30:53;6.60;;;4.50;;
15633;SDS011;14654;48.898;8.308;2023-09-30T13:33:18;6.30;;;5.13;;
15633;SDS011;14654;48.898;8.308;2023-09-30T13:35:45;6.87;;;4.60;;
15633;SDS011;14654;48.898;8.308;2023-09-30T13:38:11;7.37;;;5.33;;
15633;SDS011;14654;48.898;8.308;2023-09-30T13:40:37;7.63;;;5.33;;
15633;SDS011;14654;48.898;8.308;2023-09-30T13:43:05;8.07;;;5.57;;
15633;SDS011;14654;48.898;8.308;2023-09-30T13:45:31;6.43;;;4.47;;
15633;SDS011;14654;48.898;8.308;2023-09-30T13:47:56;6.23;;;4.70;;
15633;SDS011;14654;48.898;8.308;2023-09-30T13:50:21;5.40;;;4.20;;
15633;SDS011;14654;48.898;8.308;2023-09-30T13:52:47;6.53;;;4.93;;
15633;SDS011;14654;48.898;8.308;2023-09-30T13:55:12;7.13;;;5.13;;
15633;SDS011;14654;48.898;8.308;2023-09-30T13:57:43;6.83;;;4.50;;
15633;SDS011;14654;48.898;8.308;2023-09-30T14:00:12;6.10;;;4.73;;
15633;SDS011;14654;48.898;8.308;2023-09-30T14:02:38;6.60;;;4.70;;
15633;SDS011;14654;48.898;8.308;2023-09-30T14:05:04;7.63;;;5.23;;
15633;SDS011;14654;48.898;8.308;2023-09-30T14:07:32;6.60;;;4.70;;
15633;SDS011;14654;48.898;8.308;2023-09-30T14:09:58;7.97;;;5.10;;
15633;SDS011;14654;48.898;8.308;2023-09-30T14:12:23;9.57;;;5.70;;
15633;SDS011;14654;48.898;8.308;2023-09-30T14:14:48;8.33;;;5.50;;
15633;SDS011;14654;48.898;8.308;2023-09-30T14:17:16;7.10;;;5.30;;
15633;SDS011;14654;48.898;8.308;2023-09-30T14:19:42;6.57;;;4.90;;
15633;SDS011;14654;48.898;8.308;2023-09-30T14:22:07;6.03;;;4.63;;
15633;SDS011;14654;48.898;8.308;2023-09-30T14:24:36;7.60;;;5.10;;
15633;SDS011;14654;48.898;8.308;2023-09-30T14:27:02;7.23;;;4.83;;
15633;SDS011;14654;48.898;8.308;2023-09-30T14:29:29;6.03;;;4.70;;
15633;SDS011;14654;48.898;8.308;2023-09-30T14:31:55;7.47;;;5.47;;
15633;SDS011;14654;48.898;8.308;2023-09-30T14:34:21;5.30;;;4.13;;
15633;SDS011;14654;48.898;8.308;2023-09-30T14:36:47;7.20;;;5.53;;
15633;SDS011;14654;48.898;8.308;2023-09-30T14:39:12;9.20;;;5.93;;
15633;SDS011;14654;48.898;8.308;2023-09-30T14:41:38;7.77;;;5.73;;
15633;SDS011;14654;48.898;8.308;2023-09-30T14:44:03;6.70;;;5.13;;
15633;SDS011;14654;48.898;8.308;2023-09-30T14:46:33;7.37;;;5.77;;
15633;SDS011;14654;48.898;8.308;2023-09-30T14:48:59;7.80;;;5.53;;
15633;SDS011;14654;48.898;8.308;2023-09-30T14:51:25;8.67;;;5.67;;
15633;SDS011;14654;48.898;8.308;2023-09-30T14:53:50;8.33;;;6.00;;
15633;SDS011;14654;48.898;8.308;2023-09-30T14:56:16;8.63;;;5.53;;
15633;SDS011;14654;48.898;8.308;2023-09-30T14:58:42;9.50;;;5.97;;
15633;SDS011;14654;48.898;8.308;2023-09-30T15:01:08;7.73;;;5.53;;